createdAt,value
2023-02-12T00:05:03.349Z,20.6
2023-02-12T00:10:47.224Z,20.3
2023-02-12T00:16:31.121Z,20.8
2023-02-12T00:22:22.190Z,19.9
2023-02-12T00:28:06.136Z,19.5
2023-02-12T00:33:50.143Z,19.9
2023-02-12T00:39:33.900Z,19.1
2023-02-12T00:45:17.702Z,19.5
2023-02-12T00:51:02.454Z,19.4
2023-02-12T00:56:46.913Z,19.1
2023-02-12T01:02:30.614Z,19.6
2023-02-12T01:08:15.180Z,19.8
2023-02-12T01:13:58.944Z,19.3
2023-02-12T01:19:43.599Z,19.4
2023-02-12T01:25:27.231Z,19.4
2023-02-12T01:31:16.478Z,19.7
2023-02-12T01:37:00.400Z,18.1
2023-02-12T01:42:44.957Z,19
2023-02-12T01:48:30.634Z,18.9
2023-02-12T01:54:16.575Z,19
2023-02-12T02:00:03.468Z,18.8
2023-02-12T02:05:51.482Z,19.2
2023-02-12T02:11:35.462Z,18.8
2023-02-12T02:17:30.633Z,18.5
2023-02-12T02:23:20.019Z,18.9
2023-02-12T02:29:09.672Z,18.3
2023-02-12T02:34:57.031Z,18.5
2023-02-12T02:40:45.527Z,19.1
2023-02-12T02:46:33.360Z,18.6
2023-02-12T02:52:20.021Z,18.4
2023-02-12T02:58:07.497Z,18.8
2023-02-12T03:03:54.609Z,18.3
2023-02-12T03:09:42.456Z,17.8
2023-02-12T03:15:29.603Z,18.7
2023-02-12T03:21:15.167Z,18.7
2023-02-12T03:27:05.044Z,17.8
2023-02-12T03:32:52.186Z,18.3
2023-02-12T03:38:39.000Z,18
2023-02-12T03:44:28.814Z,18.5
2023-02-12T03:50:17.302Z,17.9
2023-02-12T03:56:04.034Z,18.5
2023-02-12T04:01:49.783Z,18.3
2023-02-12T04:07:33.989Z,18.7
2023-02-12T04:13:22.878Z,18.4
2023-02-12T04:19:06.810Z,18.4
2023-02-12T04:24:51.598Z,18.3
2023-02-12T04:30:37.522Z,18.6
2023-02-12T04:36:24.721Z,18.4
2023-02-12T04:42:08.895Z,17.7
2023-02-12T04:47:53.168Z,17.4
2023-02-12T04:53:38.016Z,18.1
2023-02-12T04:59:22.146Z,17.6
2023-02-12T05:05:08.558Z,17.9
2023-02-12T05:10:52.610Z,18.1
2023-02-12T05:16:37.235Z,17.6
2023-02-12T05:22:21.077Z,17.3
2023-02-12T05:28:05.423Z,17.6
2023-02-12T05:33:50.561Z,17
2023-02-12T05:39:34.246Z,16.3
2023-02-12T05:45:18.259Z,16.8
2023-02-12T05:51:07.881Z,18
2023-02-12T05:56:52.523Z,17.2
2023-02-12T06:02:36.837Z,17.4
2023-02-12T06:08:20.898Z,16.7
2023-02-12T06:14:04.981Z,17.5
2023-02-12T06:19:49.111Z,16
2023-02-12T06:25:32.985Z,15.9
2023-02-12T06:31:24.294Z,16.4
2023-02-12T06:37:08.274Z,16.2
2023-02-12T06:42:52.283Z,16.3
2023-02-12T06:48:38.118Z,16.1
2023-02-12T06:54:21.839Z,16.1
2023-02-12T07:00:07.101Z,16.9
2023-02-12T07:05:50.931Z,16.5
2023-02-12T07:11:39.813Z,16
2023-02-12T07:17:24.418Z,16.1
2023-02-12T07:23:08.015Z,16.2
2023-02-12T07:28:52.326Z,16.1
2023-02-12T07:34:36.077Z,16.5
2023-02-12T07:40:20.213Z,16.5
2023-02-12T07:46:11.427Z,15.9
2023-02-12T07:51:55.342Z,16.1
2023-02-12T07:57:39.987Z,15.6
2023-02-12T08:03:23.690Z,15.5
2023-02-12T08:09:08.784Z,16.3
2023-02-12T08:14:52.474Z,15.9
2023-02-12T08:20:36.150Z,15.4
2023-02-12T08:26:20.742Z,15.2
2023-02-12T08:32:05.656Z,16
2023-02-12T08:37:49.544Z,14.9
2023-02-12T08:43:35.441Z,15.6
2023-02-12T08:49:21.625Z,16.2
2023-02-12T08:55:05.427Z,16.2
2023-02-12T09:00:49.077Z,15.9
2023-02-12T09:06:33.759Z,15
2023-02-12T09:12:17.446Z,16.6
2023-02-12T09:18:01.090Z,15.9
2023-02-12T09:23:45.990Z,16.3
2023-02-12T09:29:31.023Z,16.5
2023-02-12T09:35:15.375Z,16.3
2023-02-12T09:41:04.937Z,16.6
2023-02-12T09:46:54.104Z,16.8
2023-02-12T09:52:38.669Z,17.8
2023-02-12T09:58:25.203Z,16.8
2023-02-12T10:04:08.265Z,17.7
2023-02-12T10:10:01.733Z,17
2023-02-12T10:15:50.569Z,17.3
2023-02-12T10:21:41.288Z,16.6
2023-02-12T10:27:30.172Z,17.3
2023-02-12T10:33:17.943Z,16.7
2023-02-12T10:39:04.226Z,17.1
2023-02-12T10:44:47.762Z,16.2
2023-02-12T10:50:36.454Z,15.7
2023-02-12T10:56:31.019Z,15.9
2023-02-12T11:02:25.539Z,15.2
2023-02-12T11:08:09.721Z,15.3
2023-02-12T11:13:55.460Z,13.8
2023-02-12T11:19:39.512Z,14.3
2023-02-12T11:25:24.399Z,14.3
2023-02-12T11:31:16.076Z,13.5
2023-02-12T11:37:00.135Z,13.4
2023-02-12T11:42:47.731Z,12.9
2023-02-12T11:48:33.840Z,12.4
2023-02-12T11:54:20.223Z,11.6
2023-02-12T12:00:05.439Z,11.6
2023-02-12T12:05:51.090Z,11.6
2023-02-12T12:11:38.268Z,11.4
2023-02-12T12:17:26.885Z,10.9
2023-02-12T12:23:14.936Z,10
2023-02-12T12:29:03.026Z,10.1
2023-02-12T12:34:46.952Z,10.2
2023-02-12T12:40:44.603Z,10
2023-02-12T12:46:42.127Z,9.4
2023-02-12T12:52:42.173Z,9.5
2023-02-12T12:58:30.830Z,9.1
2023-02-12T13:04:34.218Z,9.1
2023-02-12T13:10:24.103Z,9.4
2023-02-12T13:16:12.828Z,9.1
2023-02-12T13:21:59.778Z,9.5
2023-02-12T13:27:44.500Z,8.9
2023-02-12T13:33:30.495Z,9.2
2023-02-12T13:39:23.340Z,8.9
2023-02-12T13:45:13.701Z,9.1
2023-02-12T13:51:03.294Z,8.9
2023-02-12T13:56:48.472Z,8.9
2023-02-12T14:02:46.303Z,8.9
2023-02-12T14:08:36.613Z,9
2023-02-12T14:14:25.653Z,8.5
2023-02-12T14:20:17.646Z,8.8
2023-02-12T14:26:03.599Z,9.6
2023-02-12T14:31:49.825Z,9.8
2023-02-12T14:37:40.515Z,10.2
2023-02-12T14:43:38.537Z,9.6
2023-02-12T14:49:27.192Z,10.3
2023-02-12T14:55:20.576Z,10.2
2023-02-12T15:01:05.687Z,10.4
2023-02-12T15:06:54.700Z,10.1
2023-02-12T15:12:39.786Z,10
2023-02-12T15:18:26.206Z,9.8
2023-02-12T15:24:11.780Z,9.7
2023-02-12T15:29:55.700Z,10
2023-02-12T15:35:46.220Z,9.9
2023-02-12T15:41:35.944Z,9.5
2023-02-12T15:47:19.950Z,10.4
2023-02-12T15:53:04.653Z,10.1
2023-02-12T15:58:49.135Z,9.9
2023-02-12T16:04:34.702Z,10.3
2023-02-12T16:10:20.486Z,9.8
2023-02-12T16:16:19.229Z,9.1
2023-02-12T16:22:09.290Z,9.5
2023-02-12T16:28:00.515Z,10
2023-02-12T16:33:47.797Z,10.3
2023-02-12T16:39:48.652Z,11
2023-02-12T16:45:39.390Z,11
2023-02-12T16:51:27.367Z,12.1
2023-02-12T16:57:12.351Z,12.7
2023-02-12T17:02:56.351Z,12.3
2023-02-12T17:08:40.138Z,12.8
2023-02-12T17:14:23.871Z,13.3
2023-02-12T17:20:09.255Z,14
2023-02-12T17:25:53.557Z,13.6
2023-02-12T17:31:38.306Z,15.1
2023-02-12T17:37:22.160Z,14.7
2023-02-12T17:43:06.123Z,15.1
2023-02-12T17:48:50.113Z,15.9
2023-02-12T17:54:33.854Z,15.8
2023-02-12T18:00:18.582Z,16.3
2023-02-12T18:06:02.358Z,16.5
2023-02-12T18:11:46.289Z,16
2023-02-12T18:17:29.977Z,16.7
2023-02-12T18:23:13.758Z,16.5
2023-02-12T18:29:00.203Z,17.4
2023-02-12T18:34:44.700Z,17.9
2023-02-12T18:40:28.501Z,18.4
2023-02-12T18:46:13.562Z,17.2
2023-02-12T18:51:57.344Z,18.1
2023-02-12T18:57:41.119Z,17.8
2023-02-12T19:03:24.874Z,18.6
2023-02-12T19:09:08.967Z,18.2
2023-02-12T19:14:53.594Z,19.2
2023-02-12T19:20:40.759Z,19
2023-02-12T19:26:25.051Z,17.9
2023-02-12T19:32:09.081Z,18.2
2023-02-12T19:37:53.808Z,18.4
2023-02-12T19:43:38.962Z,18.1
2023-02-12T19:49:23.467Z,18.4
2023-02-12T19:55:07.795Z,18.6
2023-02-12T20:00:52.389Z,18.4
2023-02-12T20:06:38.187Z,19.4
2023-02-12T20:12:21.816Z,19.2
2023-02-12T20:18:06.019Z,19.4
2023-02-12T20:23:49.853Z,19.8
2023-02-12T20:29:33.566Z,19.2
2023-02-12T20:35:18.646Z,18.9
2023-02-12T20:41:05.975Z,20.1
2023-02-12T20:46:58.050Z,19.1
2023-02-12T20:52:42.371Z,19.3
2023-02-12T20:58:26.172Z,19.1
2023-02-12T21:04:11.170Z,18.6
2023-02-12T21:09:55.856Z,18.1
2023-02-12T21:15:42.142Z,18.5
2023-02-12T21:21:28.837Z,18.2
2023-02-12T21:27:13.218Z,18.1
2023-02-12T21:32:56.872Z,18.2
2023-02-12T21:38:41.260Z,17.5
2023-02-12T21:44:25.664Z,19.4
2023-02-12T21:50:10.099Z,17.3
2023-02-12T21:55:54.028Z,17.9
2023-02-12T22:01:43.364Z,18.1
2023-02-12T22:07:27.373Z,18.5
2023-02-12T22:13:11.139Z,17.9
2023-02-12T22:18:59.686Z,18.4
2023-02-12T22:24:43.710Z,18.9
2023-02-12T22:30:27.486Z,17.6
2023-02-12T22:36:11.725Z,18.4
2023-02-12T22:41:55.560Z,18.5
2023-02-12T22:47:39.140Z,18
2023-02-12T22:53:23.302Z,17.5
2023-02-12T22:59:07.276Z,17.5
2023-02-12T23:04:51.033Z,18.3
2023-02-12T23:10:35.244Z,17.9
2023-02-12T23:16:20.776Z,18
2023-02-12T23:22:06.265Z,19
2023-02-12T23:27:50.374Z,17.8
2023-02-12T23:33:36.164Z,18.1
2023-02-12T23:39:21.014Z,18.8
2023-02-12T23:45:04.927Z,18.5
2023-02-12T23:50:51.481Z,18.5
2023-02-12T23:56:35.429Z,17.6
